sensor_id;sensor_type;location;lat;lon;timestamp;pressure;altitude;pressure_sealevel;temperature;humidity
3428;BME280;1727;42.624;23.406;2022-08-03T00:02:04;94875.91;;;22.02;63.80
3428;BME280;1727;42.624;23.406;2022-08-03T00:04:31;94876.75;;;22.02;64.25
3428;BME280;1727;42.624;23.406;2022-08-03T00:06:58;94873.00;;;21.96;63.98
3428;BME280;1727;42.624;23.406;2022-08-03T00:09:24;94871.81;;;21.99;64.49
3428;BME280;1727;42.624;23.406;2022-08-03T00:11:53;94879.47;;;22.15;64.47
3428;BME280;1727;42.624;23.406;2022-08-03T00:14:19;94881.13;;;22.16;63.95
3428;BME280;1727;42.624;23.406;2022-08-03T00:16:46;94867.19;;;22.28;64.81
3428;BME280;1727;42.624;23.406;2022-08-03T00:19:13;94873.94;;;22.17;63.18
3428;BME280;1727;42.624;23.406;2022-08-03T00:21:40;94876.81;;;22.22;64.07
3428;BME280;1727;42.624;23.406;2022-08-03T00:24:07;94870.69;;;22.28;63.35
3428;BME280;1727;42.624;23.406;2022-08-03T00:26:33;94878.91;;;22.27;64.10
3428;BME280;1727;42.624;23.406;2022-08-03T00:29:02;94874.38;;;22.34;64.29
3428;BME280;1727;42.624;23.406;2022-08-03T00:31:29;94873.78;;;22.51;63.84
3428;BME280;1727;42.624;23.406;2022-08-03T00:33:55;94876.69;;;22.56;63.44
3428;BME280;1727;42.624;23.406;2022-08-03T00:36:22;94882.25;;;22.68;63.85
3428;BME280;1727;42.624;23.406;2022-08-03T00:38:49;94885.38;;;22.85;62.39
3428;BME280;1727;42.624;23.406;2022-08-03T00:41:16;94881.06;;;22.91;62.99
3428;BME280;1727;42.624;23.406;2022-08-03T00:43:42;94873.63;;;22.99;62.32
3428;BME280;1727;42.624;23.406;2022-08-03T00:46:13;94866.63;;;23.05;61.86
3428;BME280;1727;42.624;23.406;2022-08-03T00:48:40;94870.53;;;23.15;61.96
3428;BME280;1727;42.624;23.406;2022-08-03T00:51:07;94875.28;;;23.20;61.98
3428;BME280;1727;42.624;23.406;2022-08-03T00:53:34;94869.06;;;23.26;61.55
3428;BME280;1727;42.624;23.406;2022-08-03T00:56:01;94874.00;;;23.29;61.17
3428;BME280;1727;42.624;23.406;2022-08-03T00:58:28;94874.84;;;23.30;60.67
3428;BME280;1727;42.624;23.406;2022-08-03T01:00:55;94865.38;;;23.27;61.32
3428;BME280;1727;42.624;23.406;2022-08-03T01:03:23;94873.63;;;23.19;60.57
3428;BME280;1727;42.624;23.406;2022-08-03T01:05:57;94864.34;;;23.22;62.26
3428;BME280;1727;42.624;23.406;2022-08-03T01:08:31;94865.78;;;23.11;61.21
3428;BME280;1727;42.624;23.406;2022-08-03T01:11:07;94868.47;;;23.11;61.58
3428;BME280;1727;42.624;23.406;2022-08-03T01:13:42;94861.88;;;23.07;61.12
3428;BME280;1727;42.624;23.406;2022-08-03T01:16:16;94862.09;;;22.99;61.38
3428;BME280;1727;42.624;23.406;2022-08-03T01:18:50;94870.34;;;22.91;61.56
3428;BME280;1727;42.624;23.406;2022-08-03T01:21:26;94864.59;;;22.87;62.19
3428;BME280;1727;42.624;23.406;2022-08-03T01:24:02;94859.44;;;22.92;63.43
3428;BME280;1727;42.624;23.406;2022-08-03T01:26:59;94861.28;;;22.92;61.98
3428;BME280;1727;42.624;23.406;2022-08-03T01:29:40;94861.31;;;22.85;64.02
3428;BME280;1727;42.624;23.406;2022-08-03T01:32:17;94847.72;;;22.86;64.69
3428;BME280;1727;42.624;23.406;2022-08-03T01:34:49;94857.78;;;22.98;63.86
3428;BME280;1727;42.624;23.406;2022-08-03T01:37:22;94866.00;;;23.03;63.78
3428;BME280;1727;42.624;23.406;2022-08-03T01:39:50;94863.75;;;23.06;65.19
3428;BME280;1727;42.624;23.406;2022-08-03T01:42:20;94862.50;;;23.02;63.21
3428;BME280;1727;42.624;23.406;2022-08-03T01:44:51;94866.44;;;23.00;65.57
3428;BME280;1727;42.624;23.406;2022-08-03T01:47:20;94859.00;;;23.02;64.33
3428;BME280;1727;42.624;23.406;2022-08-03T01:49:48;94862.31;;;23.04;63.53
3428;BME280;1727;42.624;23.406;2022-08-03T01:52:18;94867.88;;;23.02;64.83
3428;BME280;1727;42.624;23.406;2022-08-03T01:54:47;94866.41;;;23.06;65.70
3428;BME280;1727;42.624;23.406;2022-08-03T01:57:15;94865.38;;;23.07;66.51
3428;BME280;1727;42.624;23.406;2022-08-03T01:59:44;94874.66;;;23.05;65.87
3428;BME280;1727;42.624;23.406;2022-08-03T02:02:15;94868.28;;;23.06;65.31
3428;BME280;1727;42.624;23.406;2022-08-03T02:04:43;94869.91;;;23.07;64.40
3428;BME280;1727;42.624;23.406;2022-08-03T02:07:13;94861.69;;;23.02;63.09
3428;BME280;1727;42.624;23.406;2022-08-03T02:09:43;94858.38;;;23.06;65.11
3428;BME280;1727;42.624;23.406;2022-08-03T02:12:11;94867.22;;;23.07;63.80
3428;BME280;1727;42.624;23.406;2022-08-03T02:14:40;94862.50;;;23.02;63.12
3428;BME280;1727;42.624;23.406;2022-08-03T02:17:08;94867.25;;;23.00;62.79
3428;BME280;1727;42.624;23.406;2022-08-03T02:19:37;94865.41;;;23.01;65.26
3428;BME280;1727;42.624;23.406;2022-08-03T02:22:08;94862.09;;;23.05;66.22
3428;BME280;1727;42.624;23.406;2022-08-03T02:24:35;94865.59;;;23.06;64.62
3428;BME280;1727;42.624;23.406;2022-08-03T02:27:05;94854.69;;;23.01;63.90
3428;BME280;1727;42.624;23.406;2022-08-03T02:29:35;94863.78;;;22.86;62.73
3428;BME280;1727;42.624;23.406;2022-08-03T02:32:04;94863.72;;;22.73;63.66
3428;BME280;1727;42.624;23.406;2022-08-03T02:34:33;94859.16;;;22.54;63.01
3428;BME280;1727;42.624;23.406;2022-08-03T02:37:03;94862.66;;;22.48;64.54
3428;BME280;1727;42.624;23.406;2022-08-03T02:39:34;94860.81;;;22.42;63.25
3428;BME280;1727;42.624;23.406;2022-08-03T02:42:02;94862.44;;;22.30;63.66
3428;BME280;1727;42.624;23.406;2022-08-03T02:44:32;94868.56;;;22.17;64.29
3428;BME280;1727;42.624;23.406;2022-08-03T02:47:04;94867.34;;;22.13;65.32
3428;BME280;1727;42.624;23.406;2022-08-03T02:49:33;94859.53;;;22.11;64.29
3428;BME280;1727;42.624;23.406;2022-08-03T02:52:03;94856.44;;;22.08;65.18
3428;BME280;1727;42.624;23.406;2022-08-03T02:54:35;94863.63;;;22.07;64.54
3428;BME280;1727;42.624;23.406;2022-08-03T02:57:06;94856.22;;;22.09;66.05
3428;BME280;1727;42.624;23.406;2022-08-03T02:59:34;94859.06;;;22.01;65.30
3428;BME280;1727;42.624;23.406;2022-08-03T03:02:03;94870.16;;;21.98;65.58
3428;BME280;1727;42.624;23.406;2022-08-03T03:04:30;94870.56;;;22.02;65.80
3428;BME280;1727;42.624;23.406;2022-08-03T03:06:57;94868.56;;;22.04;66.24
3428;BME280;1727;42.624;23.406;2022-08-03T03:09:26;94876.13;;;22.00;66.17
3428;BME280;1727;42.624;23.406;2022-08-03T03:11:54;94876.59;;;22.10;65.55
3428;BME280;1727;42.624;23.406;2022-08-03T03:14:22;94882.75;;;22.11;66.48
3428;BME280;1727;42.624;23.406;2022-08-03T03:16:50;94884.63;;;22.17;65.96
3428;BME280;1727;42.624;23.406;2022-08-03T03:19:19;94878.66;;;22.21;66.35
3428;BME280;1727;42.624;23.406;2022-08-03T03:21:46;94890.84;;;22.31;66.01
3428;BME280;1727;42.624;23.406;2022-08-03T03:24:15;94892.91;;;22.42;65.62
3428;BME280;1727;42.624;23.406;2022-08-03T03:26:43;94888.59;;;22.54;67.20
3428;BME280;1727;42.624;23.406;2022-08-03T03:29:10;94893.16;;;22.60;66.06
3428;BME280;1727;42.624;23.406;2022-08-03T03:31:37;94903.66;;;22.68;65.84
3428;BME280;1727;42.624;23.406;2022-08-03T03:34:04;94900.13;;;22.54;64.43
3428;BME280;1727;42.624;23.406;2022-08-03T03:36:32;94907.91;;;22.30;63.81
3428;BME280;1727;42.624;23.406;2022-08-03T03:38:59;94896.00;;;21.91;65.09
3428;BME280;1727;42.624;23.406;2022-08-03T03:41:25;94898.31;;;21.59;66.41
3428;BME280;1727;42.624;23.406;2022-08-03T03:43:54;94897.16;;;21.34;67.38
3428;BME280;1727;42.624;23.406;2022-08-03T03:46:21;94898.25;;;21.18;68.93
3428;BME280;1727;42.624;23.406;2022-08-03T03:48:48;94895.72;;;21.10;69.28
3428;BME280;1727;42.624;23.406;2022-08-03T03:51:15;94901.91;;;21.11;70.97
3428;BME280;1727;42.624;23.406;2022-08-03T03:53:54;94901.66;;;21.06;69.83
3428;BME280;1727;42.624;23.406;2022-08-03T03:56:20;94903.28;;;21.07;69.86
3428;BME280;1727;42.624;23.406;2022-08-03T03:58:47;94906.13;;;21.26;69.01
3428;BME280;1727;42.624;23.406;2022-08-03T04:01:16;94910.84;;;21.59;68.46
3428;BME280;1727;42.624;23.406;2022-08-03T04:03:42;94909.16;;;21.92;66.66
3428;BME280;1727;42.624;23.406;2022-08-03T04:06:10;94900.41;;;22.05;65.11
3428;BME280;1727;42.624;23.406;2022-08-03T04:08:54;94903.91;;;22.06;64.69
3428;BME280;1727;42.624;23.406;2022-08-03T04:11:40;94907.56;;;21.98;65.20
3428;BME280;1727;42.624;23.406;2022-08-03T04:14:11;94910.31;;;22.11;65.03
3428;BME280;1727;42.624;23.406;2022-08-03T04:16:43;94913.06;;;22.44;63.76
3428;BME280;1727;42.624;23.406;2022-08-03T04:19:14;94915.66;;;22.85;62.56
3428;BME280;1727;42.624;23.406;2022-08-03T04:21:47;94906.78;;;23.25;61.21
3428;BME280;1727;42.624;23.406;2022-08-03T04:24:15;94900.78;;;23.56;59.84
3428;BME280;1727;42.624;23.406;2022-08-03T04:26:44;94900.53;;;23.77;59.01
3428;BME280;1727;42.624;23.406;2022-08-03T04:29:13;94904.16;;;24.02;58.20
3428;BME280;1727;42.624;23.406;2022-08-03T04:31:44;94901.53;;;24.27;57.70
3428;BME280;1727;42.624;23.406;2022-08-03T04:34:12;94901.41;;;24.54;56.47
3428;BME280;1727;42.624;23.406;2022-08-03T04:36:48;94897.78;;;24.73;56.34
3428;BME280;1727;42.624;23.406;2022-08-03T04:39:19;94903.63;;;24.95;55.53
3428;BME280;1727;42.624;23.406;2022-08-03T04:41:52;94912.97;;;25.17;55.29
3428;BME280;1727;42.624;23.406;2022-08-03T04:44:20;94903.97;;;25.30;55.04
3428;BME280;1727;42.624;23.406;2022-08-03T04:46:51;94918.41;;;25.54;54.27
3428;BME280;1727;42.624;23.406;2022-08-03T04:49:19;94922.59;;;25.75;53.85
3428;BME280;1727;42.624;23.406;2022-08-03T04:51:48;94928.91;;;25.99;54.42
3428;BME280;1727;42.624;23.406;2022-08-03T04:54:15;94928.97;;;26.29;53.29
3428;BME280;1727;42.624;23.406;2022-08-03T04:56:42;94931.69;;;26.47;52.87
3428;BME280;1727;42.624;23.406;2022-08-03T04:59:09;94938.44;;;26.68;52.12
3428;BME280;1727;42.624;23.406;2022-08-03T05:01:36;94929.44;;;26.25;53.05
3428;BME280;1727;42.624;23.406;2022-08-03T05:04:06;94943.78;;;26.19;55.36
3428;BME280;1727;42.624;23.406;2022-08-03T05:06:33;94937.44;;;25.77;56.42
3428;BME280;1727;42.624;23.406;2022-08-03T05:08:59;94939.47;;;25.07;56.15
3428;BME280;1727;42.624;23.406;2022-08-03T05:11:26;94935.13;;;24.75;57.98
3428;BME280;1727;42.624;23.406;2022-08-03T05:13:53;94946.13;;;24.98;58.66
3428;BME280;1727;42.624;23.406;2022-08-03T05:16:20;94953.31;;;25.36;57.82
3428;BME280;1727;42.624;23.406;2022-08-03T05:18:49;94950.78;;;25.41;57.41
3428;BME280;1727;42.624;23.406;2022-08-03T05:21:17;94957.19;;;25.64;58.11
3428;BME280;1727;42.624;23.406;2022-08-03T05:23:44;94960.06;;;25.88;56.69
3428;BME280;1727;42.624;23.406;2022-08-03T05:26:11;94961.81;;;26.19;54.80
3428;BME280;1727;42.624;23.406;2022-08-03T05:28:38;94962.31;;;26.28;54.38
3428;BME280;1727;42.624;23.406;2022-08-03T05:31:05;94961.38;;;26.40;53.80
3428;BME280;1727;42.624;23.406;2022-08-03T05:33:32;94964.03;;;26.59;52.76
3428;BME280;1727;42.624;23.406;2022-08-03T05:35:59;94965.00;;;26.64;51.88
3428;BME280;1727;42.624;23.406;2022-08-03T05:38:27;94961.13;;;26.60;51.80
3428;BME280;1727;42.624;23.406;2022-08-03T05:40:54;94966.56;;;26.53;51.44
3428;BME280;1727;42.624;23.406;2022-08-03T05:43:20;94963.88;;;26.83;51.55
3428;BME280;1727;42.624;23.406;2022-08-03T05:45:47;94963.19;;;27.06;50.82
3428;BME280;1727;42.624;23.406;2022-08-03T05:48:14;94971.19;;;27.25;49.95
3428;BME280;1727;42.624;23.406;2022-08-03T05:50:41;94969.69;;;27.40;49.68
3428;BME280;1727;42.624;23.406;2022-08-03T05:53:08;94971.00;;;27.50;49.63
3428;BME280;1727;42.624;23.406;2022-08-03T05:58:45;94975.25;;;27.69;49.00
3428;BME280;1727;42.624;23.406;2022-08-03T06:01:12;94974.19;;;27.93;48.88
3428;BME280;1727;42.624;23.406;2022-08-03T06:03:39;94974.22;;;28.05;47.92
3428;BME280;1727;42.624;23.406;2022-08-03T06:06:06;94981.34;;;28.34;47.22
3428;BME280;1727;42.624;23.406;2022-08-03T06:08:33;94982.66;;;28.60;47.37
3428;BME280;1727;42.624;23.406;2022-08-03T06:11:00;94979.63;;;28.57;46.65
3428;BME280;1727;42.624;23.406;2022-08-03T06:13:27;94967.91;;;28.51;46.89
3428;BME280;1727;42.624;23.406;2022-08-03T06:15:55;94977.72;;;28.69;46.57
3428;BME280;1727;42.624;23.406;2022-08-03T06:18:22;94969.47;;;28.76;47.13
3428;BME280;1727;42.624;23.406;2022-08-03T06:20:49;94984.06;;;29.03;46.76
3428;BME280;1727;42.624;23.406;2022-08-03T06:23:16;94972.22;;;29.21;46.28
3428;BME280;1727;42.624;23.406;2022-08-03T06:25:43;94973.38;;;28.68;47.16
3428;BME280;1727;42.624;23.406;2022-08-03T06:28:10;94974.31;;;28.62;47.20
3428;BME280;1727;42.624;23.406;2022-08-03T06:30:39;94966.03;;;28.52;48.53
3428;BME280;1727;42.624;23.406;2022-08-03T06:33:07;94973.63;;;28.66;48.09
3428;BME280;1727;42.624;23.406;2022-08-03T06:35:34;94960.22;;;28.72;48.10
3428;BME280;1727;42.624;23.406;2022-08-03T06:38:01;94967.91;;;28.91;47.49
3428;BME280;1727;42.624;23.406;2022-08-03T06:40:28;94957.94;;;29.09;46.85
3428;BME280;1727;42.624;23.406;2022-08-03T06:42:55;94968.38;;;29.34;46.53
3428;BME280;1727;42.624;23.406;2022-08-03T06:45:23;94965.81;;;29.10;46.28
3428;BME280;1727;42.624;23.406;2022-08-03T06:47:59;94959.69;;;29.32;46.95
3428;BME280;1727;42.624;23.406;2022-08-03T06:50:28;94961.03;;;29.63;47.26
3428;BME280;1727;42.624;23.406;2022-08-03T06:52:55;94953.81;;;29.85;45.29
3428;BME280;1727;42.624;23.406;2022-08-03T06:55:22;94960.84;;;30.03;43.81
3428;BME280;1727;42.624;23.406;2022-08-03T06:57:48;94961.84;;;29.80;43.60
3428;BME280;1727;42.624;23.406;2022-08-03T07:00:16;94960.69;;;29.92;44.86
3428;BME280;1727;42.624;23.406;2022-08-03T07:02:43;94961.69;;;29.70;43.97
3428;BME280;1727;42.624;23.406;2022-08-03T07:05:10;94964.81;;;29.62;44.40
3428;BME280;1727;42.624;23.406;2022-08-03T07:07:39;94963.19;;;29.60;44.75
3428;BME280;1727;42.624;23.406;2022-08-03T07:10:07;94966.53;;;29.68;44.14
3428;BME280;1727;42.624;23.406;2022-08-03T07:12:36;94954.88;;;29.84;44.56
3428;BME280;1727;42.624;23.406;2022-08-03T07:15:04;94954.84;;;30.01;44.95
3428;BME280;1727;42.624;23.406;2022-08-03T07:17:32;94963.97;;;29.78;44.04
3428;BME280;1727;42.624;23.406;2022-08-03T07:20:00;94963.81;;;29.68;46.33
3428;BME280;1727;42.624;23.406;2022-08-03T07:22:28;94955.38;;;29.47;44.75
3428;BME280;1727;42.624;23.406;2022-08-03T07:24:56;94962.84;;;29.57;44.96
3428;BME280;1727;42.624;23.406;2022-08-03T07:27:25;94959.88;;;29.75;44.84
3428;BME280;1727;42.624;23.406;2022-08-03T07:29:53;94962.13;;;30.00;45.15
3428;BME280;1727;42.624;23.406;2022-08-03T07:32:20;94960.25;;;30.01;44.10
3428;BME280;1727;42.624;23.406;2022-08-03T07:34:47;94968.53;;;29.94;44.14
3428;BME280;1727;42.624;23.406;2022-08-03T07:37:14;94963.97;;;30.11;43.70
3428;BME280;1727;42.624;23.406;2022-08-03T07:39:41;94951.66;;;30.04;43.31
3428;BME280;1727;42.624;23.406;2022-08-03T07:42:09;94959.06;;;30.08;43.56
3428;BME280;1727;42.624;23.406;2022-08-03T07:44:36;94962.00;;;29.90;42.81
3428;BME280;1727;42.624;23.406;2022-08-03T07:47:03;94967.25;;;30.13;43.06
3428;BME280;1727;42.624;23.406;2022-08-03T07:49:30;94963.22;;;30.38;44.30
3428;BME280;1727;42.624;23.406;2022-08-03T07:51:57;94962.38;;;30.59;42.45
3428;BME280;1727;42.624;23.406;2022-08-03T07:54:41;94966.69;;;30.55;41.68
3428;BME280;1727;42.624;23.406;2022-08-03T07:57:10;94970.50;;;30.59;42.33
3428;BME280;1727;42.624;23.406;2022-08-03T07:59:37;94963.53;;;30.63;41.59
3428;BME280;1727;42.624;23.406;2022-08-03T08:02:05;94964.97;;;30.49;42.04
3428;BME280;1727;42.624;23.406;2022-08-03T08:04:32;94962.53;;;30.47;41.10
3428;BME280;1727;42.624;23.406;2022-08-03T08:06:59;94964.97;;;30.49;40.75
3428;BME280;1727;42.624;23.406;2022-08-03T08:09:26;94959.03;;;30.69;41.91
3428;BME280;1727;42.624;23.406;2022-08-03T08:11:53;94964.66;;;30.89;40.11
3428;BME280;1727;42.624;23.406;2022-08-03T08:14:21;94961.00;;;31.00;40.39
3428;BME280;1727;42.624;23.406;2022-08-03T08:16:48;94977.00;;;31.24;39.86
3428;BME280;1727;42.624;23.406;2022-08-03T08:19:15;94976.03;;;31.40;38.66
3428;BME280;1727;42.624;23.406;2022-08-03T08:21:42;94975.91;;;31.25;38.74
3428;BME280;1727;42.624;23.406;2022-08-03T08:24:09;94973.19;;;31.25;39.86
3428;BME280;1727;42.624;23.406;2022-08-03T08:26:36;94967.31;;;31.11;40.71
3428;BME280;1727;42.624;23.406;2022-08-03T08:29:03;94958.63;;;31.09;39.79
3428;BME280;1727;42.624;23.406;2022-08-03T08:31:32;94961.31;;;31.04;40.69
3428;BME280;1727;42.624;23.406;2022-08-03T08:33:59;94961.19;;;30.94;40.74
3428;BME280;1727;42.624;23.406;2022-08-03T08:36:30;94964.13;;;30.92;39.36
3428;BME280;1727;42.624;23.406;2022-08-03T08:38:58;94956.78;;;30.88;39.60
3428;BME280;1727;42.624;23.406;2022-08-03T08:41:27;94957.91;;;30.92;39.71
3428;BME280;1727;42.624;23.406;2022-08-03T08:43:54;94961.25;;;30.99;39.75
3428;BME280;1727;42.624;23.406;2022-08-03T08:46:20;94960.38;;;31.20;39.32
3428;BME280;1727;42.624;23.406;2022-08-03T08:48:50;94962.72;;;31.38;39.68
3428;BME280;1727;42.624;23.406;2022-08-03T08:51:19;94949.66;;;31.62;39.11
3428;BME280;1727;42.624;23.406;2022-08-03T08:53:48;94958.78;;;31.83;39.08
3428;BME280;1727;42.624;23.406;2022-08-03T08:56:17;94959.13;;;31.97;37.70
3428;BME280;1727;42.624;23.406;2022-08-03T08:58:49;94956.16;;;31.98;37.56
3428;BME280;1727;42.624;23.406;2022-08-03T09:01:17;94956.41;;;31.97;37.70
3428;BME280;1727;42.624;23.406;2022-08-03T09:03:45;94961.53;;;31.88;37.71
3428;BME280;1727;42.624;23.406;2022-08-03T09:06:13;94953.97;;;31.95;37.04
3428;BME280;1727;42.624;23.406;2022-08-03T09:08:40;94937.13;;;31.93;36.20
3428;BME280;1727;42.624;23.406;2022-08-03T09:11:09;94953.91;;;31.85;37.57
3428;BME280;1727;42.624;23.406;2022-08-03T09:13:36;94946.41;;;31.65;36.89
3428;BME280;1727;42.624;23.406;2022-08-03T09:16:11;94941.38;;;31.47;37.14
3428;BME280;1727;42.624;23.406;2022-08-03T09:18:39;94939.13;;;31.39;36.79
3428;BME280;1727;42.624;23.406;2022-08-03T09:21:15;94948.28;;;31.28;38.18
3428;BME280;1727;42.624;23.406;2022-08-03T09:23:46;94942.63;;;31.34;37.49
3428;BME280;1727;42.624;23.406;2022-08-03T09:26:24;94941.84;;;31.39;37.69
3428;BME280;1727;42.624;23.406;2022-08-03T09:28:55;94949.41;;;31.32;38.33
3428;BME280;1727;42.624;23.406;2022-08-03T09:31:32;94948.63;;;31.36;36.21
3428;BME280;1727;42.624;23.406;2022-08-03T09:34:04;94935.56;;;31.33;35.06
3428;BME280;1727;42.624;23.406;2022-08-03T09:36:37;94939.13;;;31.39;37.25
3428;BME280;1727;42.624;23.406;2022-08-03T09:39:05;94934.88;;;31.48;37.05
3428;BME280;1727;42.624;23.406;2022-08-03T09:41:36;94937.41;;;31.60;37.06
3428;BME280;1727;42.624;23.406;2022-08-03T09:44:03;94936.88;;;31.63;37.82
3428;BME280;1727;42.624;23.406;2022-08-03T09:46:30;94939.56;;;31.58;36.59
3428;BME280;1727;42.624;23.406;2022-08-03T09:49:10;94935.13;;;31.47;36.72
3428;BME280;1727;42.624;23.406;2022-08-03T09:51:39;94929.81;;;31.25;38.48
3428;BME280;1727;42.624;23.406;2022-08-03T09:54:06;94935.91;;;31.15;37.61
3428;BME280;1727;42.624;23.406;2022-08-03T09:56:41;94927.22;;;31.13;37.95
3428;BME280;1727;42.624;23.406;2022-08-03T09:59:09;94927.03;;;31.20;38.65
3428;BME280;1727;42.624;23.406;2022-08-03T10:01:36;94924.94;;;30.73;38.52
3428;BME280;1727;42.624;23.406;2022-08-03T10:04:10;94922.41;;;30.93;37.96
3428;BME280;1727;42.624;23.406;2022-08-03T10:06:39;94916.81;;;31.00;37.95
3428;BME280;1727;42.624;23.406;2022-08-03T10:09:08;94916.00;;;30.99;37.34
3428;BME280;1727;42.624;23.406;2022-08-03T10:11:36;94913.47;;;30.93;37.35
3428;BME280;1727;42.624;23.406;2022-08-03T10:14:04;94916.66;;;30.85;37.78
3428;BME280;1727;42.624;23.406;2022-08-03T10:16:32;94910.09;;;30.80;37.48
3428;BME280;1727;42.624;23.406;2022-08-03T10:18:59;94910.56;;;30.72;36.81
3428;BME280;1727;42.624;23.406;2022-08-03T10:21:29;94911.75;;;30.60;37.66
3428;BME280;1727;42.624;23.406;2022-08-03T10:23:58;94903.75;;;30.48;37.99
3428;BME280;1727;42.624;23.406;2022-08-03T10:26:30;94897.88;;;30.56;37.79
3428;BME280;1727;42.624;23.406;2022-08-03T10:28:59;94898.78;;;30.62;38.49
3428;BME280;1727;42.624;23.406;2022-08-03T10:31:33;94906.66;;;30.63;38.38
3428;BME280;1727;42.624;23.406;2022-08-03T10:34:01;94900.03;;;30.54;38.96
3428;BME280;1727;42.624;23.406;2022-08-03T10:36:32;94903.06;;;30.58;40.19
3428;BME280;1727;42.624;23.406;2022-08-03T10:39:02;94889.97;;;30.49;38.50
3428;BME280;1727;42.624;23.406;2022-08-03T10:41:31;94888.13;;;30.55;38.73
3428;BME280;1727;42.624;23.406;2022-08-03T10:44:03;94889.16;;;30.49;38.40
3428;BME280;1727;42.624;23.406;2022-08-03T10:46:32;94890.78;;;30.50;40.20
3428;BME280;1727;42.624;23.406;2022-08-03T10:49:01;94884.09;;;30.36;37.39
3428;BME280;1727;42.624;23.406;2022-08-03T10:51:28;94884.31;;;30.29;39.41
3428;BME280;1727;42.624;23.406;2022-08-03T10:53:57;94881.34;;;30.31;37.91
3428;BME280;1727;42.624;23.406;2022-08-03T10:56:40;94891.13;;;30.10;39.89
3428;BME280;1727;42.624;23.406;2022-08-03T10:59:57;94888.16;;;30.11;39.24
3428;BME280;1727;42.624;23.406;2022-08-03T11:05:27;94888.09;;;30.28;39.21
3428;BME280;1727;42.624;23.406;2022-08-03T11:08:18;94882.47;;;30.35;38.79
3428;BME280;1727;42.624;23.406;2022-08-03T11:10:46;94880.34;;;30.37;38.96
3428;BME280;1727;42.624;23.406;2022-08-03T11:13:16;94885.69;;;30.32;39.08
3428;BME280;1727;42.624;23.406;2022-08-03T11:15:44;94881.69;;;30.12;39.08
3428;BME280;1727;42.624;23.406;2022-08-03T11:18:12;94877.03;;;30.08;40.42
3428;BME280;1727;42.624;23.406;2022-08-03T11:20:44;94875.31;;;30.24;39.79
3428;BME280;1727;42.624;23.406;2022-08-03T11:23:11;94870.00;;;30.34;39.11
3428;BME280;1727;42.624;23.406;2022-08-03T11:26:10;94872.91;;;30.49;40.20
3428;BME280;1727;42.624;23.406;2022-08-03T11:28:39;94871.69;;;30.62;44.25
3428;BME280;1727;42.624;23.406;2022-08-03T11:31:44;94871.53;;;30.68;38.52
3428;BME280;1727;42.624;23.406;2022-08-03T11:34:15;94863.59;;;30.40;38.11
3428;BME280;1727;42.624;23.406;2022-08-03T11:39:53;94846.84;;;30.43;39.40
3428;BME280;1727;42.624;23.406;2022-08-03T11:42:42;94856.88;;;30.20;40.86
3428;BME280;1727;42.624;23.406;2022-08-03T11:45:13;94852.50;;;29.98;40.41
3428;BME280;1727;42.624;23.406;2022-08-03T11:47:40;94842.44;;;29.93;40.89
3428;BME280;1727;42.624;23.406;2022-08-03T11:50:09;94848.34;;;29.90;39.05
3428;BME280;1727;42.624;23.406;2022-08-03T11:52:39;94842.97;;;30.12;42.27
3428;BME280;1727;42.624;23.406;2022-08-03T11:55:14;94849.94;;;30.30;40.80
3428;BME280;1727;42.624;23.406;2022-08-03T11:57:42;94834.75;;;30.29;40.47
3428;BME280;1727;42.624;23.406;2022-08-03T12:00:26;94832.44;;;30.37;39.27
3428;BME280;1727;42.624;23.406;2022-08-03T12:03:01;94849.09;;;30.51;41.68
3428;BME280;1727;42.624;23.406;2022-08-03T12:05:36;94842.53;;;30.69;41.82
3428;BME280;1727;42.624;23.406;2022-08-03T12:08:03;94839.09;;;30.78;41.05
3428;BME280;1727;42.624;23.406;2022-08-03T12:10:30;94838.50;;;30.71;40.09
3428;BME280;1727;42.624;23.406;2022-08-03T12:12:58;94839.00;;;30.68;40.54
3428;BME280;1727;42.624;23.406;2022-08-03T12:15:28;94841.94;;;30.40;40.04
3428;BME280;1727;42.624;23.406;2022-08-03T12:17:56;94838.06;;;30.36;42.21
3428;BME280;1727;42.624;23.406;2022-08-03T12:20:24;94834.59;;;30.13;39.29
3428;BME280;1727;42.624;23.406;2022-08-03T12:22:51;94828.13;;;29.98;40.58
3428;BME280;1727;42.624;23.406;2022-08-03T12:25:23;94835.16;;;29.77;40.78
3428;BME280;1727;42.624;23.406;2022-08-03T12:27:52;94841.81;;;29.86;40.17
3428;BME280;1727;42.624;23.406;2022-08-03T12:30:19;94832.78;;;30.02;40.01
3428;BME280;1727;42.624;23.406;2022-08-03T12:32:49;94830.75;;;30.09;40.73
3428;BME280;1727;42.624;23.406;2022-08-03T12:35:22;94829.25;;;30.18;39.80
3428;BME280;1727;42.624;23.406;2022-08-03T12:37:50;94832.25;;;30.22;39.16
3428;BME280;1727;42.624;23.406;2022-08-03T12:40:24;94828.13;;;30.14;38.65
3428;BME280;1727;42.624;23.406;2022-08-03T12:42:52;94822.28;;;30.28;39.67
3428;BME280;1727;42.624;23.406;2022-08-03T12:45:23;94825.13;;;30.38;39.79
3428;BME280;1727;42.624;23.406;2022-08-03T12:47:56;94816.88;;;30.28;40.01
3428;BME280;1727;42.624;23.406;2022-08-03T12:50:24;94825.00;;;30.28;39.93
3428;BME280;1727;42.624;23.406;2022-08-03T12:52:52;94824.53;;;30.36;39.60
3428;BME280;1727;42.624;23.406;2022-08-03T12:55:20;94819.75;;;30.16;39.84
3428;BME280;1727;42.624;23.406;2022-08-03T12:57:47;94824.13;;;30.22;39.31
3428;BME280;1727;42.624;23.406;2022-08-03T13:00:16;94814.88;;;29.96;39.07
3428;BME280;1727;42.624;23.406;2022-08-03T13:02:43;94804.78;;;29.70;40.45
3428;BME280;1727;42.624;23.406;2022-08-03T13:05:13;94802.97;;;29.53;41.56
3428;BME280;1727;42.624;23.406;2022-08-03T13:07:40;94807.47;;;29.48;41.28
3428;BME280;1727;42.624;23.406;2022-08-03T13:10:08;94810.91;;;29.43;41.63
3428;BME280;1727;42.624;23.406;2022-08-03T13:12:45;94808.13;;;29.38;41.46
3428;BME280;1727;42.624;23.406;2022-08-03T13:15:12;94820.56;;;29.39;40.71
3428;BME280;1727;42.624;23.406;2022-08-03T13:17:39;94809.25;;;29.42;41.81
3428;BME280;1727;42.624;23.406;2022-08-03T13:20:06;94811.19;;;29.25;43.89
3428;BME280;1727;42.624;23.406;2022-08-03T13:22:35;94816.59;;;29.08;43.82
3428;BME280;1727;42.624;23.406;2022-08-03T13:25:03;94821.41;;;28.73;45.43
3428;BME280;1727;42.624;23.406;2022-08-03T13:27:30;94842.72;;;28.41;48.88
3428;BME280;1727;42.624;23.406;2022-08-03T13:29:57;94835.75;;;27.64;53.19
3428;BME280;1727;42.624;23.406;2022-08-03T13:32:24;94842.69;;;27.25;52.77